createdAt,value
2017-11-15T00:00:32.600Z,0
2017-11-15T00:01:13.097Z,0
2017-11-15T00:01:53.369Z,0
2017-11-15T00:02:33.870Z,0
2017-11-15T00:03:14.261Z,0
2017-11-15T00:03:54.567Z,0
2017-11-15T00:04:35.093Z,0
2017-11-15T00:05:15.609Z,0
2017-11-15T00:05:55.869Z,0
2017-11-15T00:06:36.431Z,0
2017-11-15T00:07:16.856Z,0
2017-11-15T00:07:57.194Z,0
2017-11-15T00:08:37.578Z,0
2017-11-15T00:09:17.998Z,0
2017-11-15T00:09:58.355Z,0
2017-11-15T00:10:38.831Z,0
2017-11-15T00:11:19.230Z,0
2017-11-15T00:11:59.768Z,0
2017-11-15T00:12:40.149Z,0
2017-11-15T00:13:20.636Z,0
2017-11-15T00:14:01.102Z,0
2017-11-15T00:14:41.393Z,0
2017-11-15T00:15:21.827Z,0
2017-11-15T00:16:02.208Z,0
2017-11-15T00:16:42.731Z,0
2017-11-15T00:17:23.063Z,0
2017-11-15T00:18:03.536Z,0
2017-11-15T00:18:44.044Z,0
2017-11-15T00:19:24.420Z,0
2017-11-15T00:20:05.057Z,0
2017-11-15T00:20:45.600Z,0
2017-11-15T00:21:28.004Z,0
2017-11-15T00:25:19.647Z,0
2017-11-15T00:25:59.314Z,0
2017-11-15T00:26:39.785Z,0
2017-11-15T00:27:22.451Z,0
2017-11-15T00:28:03.341Z,0
2017-11-15T00:28:43.619Z,0
2017-11-15T00:29:23.968Z,0
2017-11-15T00:30:05.404Z,0
2017-11-15T00:30:46.081Z,0
2017-11-15T00:31:26.506Z,0
2017-11-15T00:32:06.948Z,0
2017-11-15T00:32:47.328Z,0
2017-11-15T00:33:27.948Z,0
2017-11-15T00:34:08.357Z,0
2017-11-15T00:34:49.261Z,0
2017-11-15T00:35:29.706Z,0
2017-11-15T00:36:10.091Z,0
2017-11-15T00:36:51.373Z,0
2017-11-15T00:37:31.590Z,0
2017-11-15T00:38:12.295Z,0
2017-11-15T00:38:56.012Z,0
2017-11-15T00:39:38.041Z,0
2017-11-15T00:40:18.788Z,0
2017-11-15T00:40:59.146Z,0
2017-11-15T00:41:40.688Z,0
2017-11-15T00:42:23.985Z,0
2017-11-15T00:43:04.098Z,0
2017-11-15T00:43:44.959Z,0
2017-11-15T00:44:25.383Z,0
2017-11-15T00:45:05.832Z,0
2017-11-15T00:45:47.207Z,0
2017-11-15T00:46:26.795Z,0
2017-11-15T00:47:07.298Z,0
2017-11-15T00:47:47.624Z,0
2017-11-15T00:48:28.070Z,0
2017-11-15T00:49:08.480Z,0
2017-11-15T00:49:49.854Z,0
2017-11-15T00:50:30.976Z,0
2017-11-15T00:51:15.026Z,0
2017-11-15T00:51:54.760Z,0
2017-11-15T00:52:35.184Z,0
2017-11-15T00:53:15.670Z,0
2017-11-15T00:53:56.030Z,0
2017-11-15T00:54:36.620Z,0
2017-11-15T00:55:16.927Z,0
2017-11-15T00:55:57.337Z,0
2017-11-15T00:56:37.804Z,0
2017-11-15T00:57:19.804Z,0
2017-11-15T00:58:00.338Z,0
2017-11-15T01:00:40.925Z,0
2017-11-15T01:01:21.387Z,0
2017-11-15T01:02:01.877Z,0
2017-11-15T01:02:42.301Z,0
2017-11-15T01:03:22.955Z,0
2017-11-15T01:04:05.250Z,0
2017-11-15T01:04:45.694Z,0
2017-11-15T01:05:26.103Z,0
2017-11-15T01:06:06.514Z,0
2017-11-15T01:06:47.273Z,0
2017-11-15T01:07:27.722Z,0
2017-11-15T01:08:10.047Z,0
2017-11-15T01:08:50.487Z,0
2017-11-15T01:09:30.897Z,0
2017-11-15T01:10:12.042Z,0
2017-11-15T01:10:52.459Z,0
2017-11-15T01:11:35.142Z,0
2017-11-15T01:12:15.308Z,0
2017-11-15T01:12:55.834Z,0
2017-11-15T01:13:36.157Z,0
2017-11-15T01:14:16.495Z,0
2017-11-15T01:14:56.919Z,0
2017-11-15T01:15:37.300Z,0
2017-11-15T01:19:17.731Z,0
2017-11-15T01:19:59.630Z,0
2017-11-15T01:20:41.669Z,0
2017-11-15T01:21:21.946Z,0
2017-11-15T01:22:03.015Z,0
2017-11-15T01:22:44.037Z,0
2017-11-15T01:23:24.434Z,0
2017-11-15T01:24:04.919Z,0
2017-11-15T01:24:45.412Z,0
2017-11-15T01:25:25.831Z,0
2017-11-15T01:26:06.082Z,0
2017-11-15T01:26:46.506Z,0
2017-11-15T01:27:26.885Z,0
2017-11-15T01:28:07.266Z,0
2017-11-15T01:28:47.688Z,0
2017-11-15T01:29:28.964Z,0
2017-11-15T01:30:09.519Z,0
2017-11-15T01:30:49.937Z,0
2017-11-15T01:31:30.377Z,0
2017-11-15T01:32:10.723Z,0
2017-11-15T01:32:51.142Z,0
2017-11-15T01:33:31.539Z,0
2017-11-15T01:34:11.970Z,0
2017-11-15T01:34:52.435Z,0
2017-11-15T01:35:32.759Z,0
2017-11-15T01:36:13.187Z,0
2017-11-15T01:36:53.615Z,0
2017-11-15T01:37:34.061Z,0
2017-11-15T01:38:17.083Z,0
2017-11-15T01:38:57.520Z,0
2017-11-15T01:39:37.872Z,0
2017-11-15T01:40:18.397Z,0
2017-11-15T01:40:58.768Z,0
2017-11-15T01:41:39.257Z,0
2017-11-15T01:42:19.621Z,0
2017-11-15T01:43:00.054Z,0
2017-11-15T01:43:40.486Z,0
2017-11-15T01:44:20.937Z,0
2017-11-15T01:45:01.401Z,0
2017-11-15T01:45:41.821Z,0
2017-11-15T01:46:22.148Z,0
2017-11-15T01:47:02.532Z,0
2017-11-15T01:47:42.944Z,0
2017-11-15T01:48:23.370Z,0
2017-11-15T01:49:03.742Z,0
2017-11-15T01:49:44.199Z,0
2017-11-15T01:50:24.596Z,0
2017-11-15T01:51:04.949Z,0
2017-11-15T01:51:45.354Z,0
2017-11-15T01:52:25.811Z,0
2017-11-15T01:53:06.166Z,0
2017-11-15T01:53:46.616Z,0
2017-11-15T01:54:27.058Z,0
2017-11-15T01:55:07.411Z,0
2017-11-15T01:55:47.827Z,0
2017-11-15T01:56:28.248Z,0
2017-11-15T01:57:08.727Z,0
2017-11-15T01:57:49.193Z,0
2017-11-15T01:58:29.567Z,0
2017-11-15T01:59:10.067Z,0
2017-11-15T01:59:50.378Z,0
2017-11-15T02:00:30.813Z,0
2017-11-15T02:01:11.233Z,0
2017-11-15T02:01:51.601Z,0
2017-11-15T02:02:32.015Z,0
2017-11-15T02:03:12.386Z,0
2017-11-15T02:03:52.775Z,0
2017-11-15T02:04:33.168Z,0
2017-11-15T02:05:13.580Z,0
2017-11-15T02:05:54.097Z,0
2017-11-15T02:06:34.453Z,0
2017-11-15T02:07:14.853Z,0
2017-11-15T02:07:55.227Z,0
2017-11-15T02:08:35.715Z,0
2017-11-15T02:09:16.177Z,0
2017-11-15T02:09:56.507Z,0
2017-11-15T02:10:36.960Z,0
2017-11-15T02:11:17.387Z,0
2017-11-15T02:11:57.940Z,0
2017-11-15T02:12:38.258Z,0
2017-11-15T02:13:18.614Z,0
2017-11-15T02:13:59.052Z,0
2017-11-15T02:14:39.403Z,0
2017-11-15T02:15:19.829Z,0
2017-11-15T02:16:00.392Z,0
2017-11-15T02:16:40.759Z,0
2017-11-15T02:17:21.472Z,0
2017-11-15T02:18:01.859Z,0
2017-11-15T02:18:42.583Z,0
2017-11-15T02:19:23.155Z,0
2017-11-15T02:20:03.568Z,0
2017-11-15T02:20:43.960Z,0
2017-11-15T02:21:24.438Z,0
2017-11-15T02:22:04.938Z,0
2017-11-15T02:22:45.282Z,0
2017-11-15T02:23:25.748Z,0
2017-11-15T02:24:06.091Z,0
2017-11-15T02:24:46.489Z,0
2017-11-15T02:25:26.925Z,0
2017-11-15T02:26:07.400Z,0
2017-11-15T02:26:47.764Z,0
2017-11-15T02:27:28.229Z,0
2017-11-15T02:28:08.596Z,0
2017-11-15T02:28:49.101Z,0
2017-11-15T02:29:29.506Z,0
2017-11-15T02:30:10.003Z,0
2017-11-15T02:30:50.366Z,0
2017-11-15T02:31:30.826Z,0
2017-11-15T02:32:11.298Z,0
2017-11-15T02:32:51.604Z,0
2017-11-15T02:33:32.081Z,0
2017-11-15T02:34:12.501Z,0
2017-11-15T02:34:52.950Z,0
2017-11-15T02:35:33.337Z,0
2017-11-15T02:36:13.749Z,0
2017-11-15T02:36:54.107Z,0
2017-11-15T02:37:37.329Z,0
2017-11-15T02:38:17.749Z,0
2017-11-15T02:38:58.126Z,0
2017-11-15T02:39:41.226Z,0
2017-11-15T02:40:21.651Z,0
2017-11-15T02:41:02.098Z,0
2017-11-15T02:41:42.573Z,0
2017-11-15T02:42:22.988Z,0
2017-11-15T02:43:03.398Z,0
2017-11-15T02:43:43.788Z,0
2017-11-15T02:44:24.166Z,0
2017-11-15T02:45:04.582Z,0
2017-11-15T02:45:45.019Z,0
2017-11-15T02:46:26.171Z,0
2017-11-15T02:47:05.794Z,0
2017-11-15T02:47:46.300Z,0
2017-11-15T02:48:26.766Z,0
2017-11-15T02:49:07.222Z,0
2017-11-15T02:49:47.613Z,0
2017-11-15T02:50:27.999Z,0
2017-11-15T02:51:08.553Z,0
2017-11-15T02:51:49.004Z,0
2017-11-15T02:52:29.423Z,0
2017-11-15T02:53:09.851Z,0
2017-11-15T02:53:50.351Z,0
2017-11-15T02:54:30.788Z,0
2017-11-15T02:55:11.146Z,0
2017-11-15T02:55:51.569Z,0
2017-11-15T02:56:31.958Z,0
2017-11-15T02:57:12.359Z,0
2017-11-15T02:57:52.876Z,0
2017-11-15T02:58:33.193Z,0
2017-11-15T02:59:13.658Z,0
2017-11-15T02:59:54.031Z,0
2017-11-15T03:00:34.457Z,0
2017-11-15T03:01:14.844Z,0
2017-11-15T03:01:55.213Z,0
2017-11-15T03:02:35.644Z,0
2017-11-15T03:03:16.067Z,0
2017-11-15T03:03:56.531Z,0
2017-11-15T03:04:36.973Z,0
2017-11-15T03:05:17.357Z,0
2017-11-15T03:05:57.869Z,0
2017-11-15T03:06:38.271Z,0
2017-11-15T03:07:18.631Z,0
2017-11-15T03:07:59.038Z,0
2017-11-15T03:08:39.462Z,0
2017-11-15T03:09:19.931Z,0
2017-11-15T03:10:00.335Z,0
2017-11-15T03:10:40.736Z,0
2017-11-15T03:11:21.302Z,0
2017-11-15T03:12:01.701Z,0
2017-11-15T03:12:42.219Z,0
2017-11-15T03:13:22.611Z,0
2017-11-15T03:14:03.005Z,0
2017-11-15T03:14:43.500Z,0
2017-11-15T03:15:23.909Z,0
2017-11-15T03:16:04.300Z,0
2017-11-15T03:16:45.079Z,0
2017-11-15T03:17:25.630Z,0
2017-11-15T03:18:06.002Z,0
2017-11-15T03:18:46.607Z,0
2017-11-15T03:19:27.024Z,0
2017-11-15T03:20:07.294Z,0
2017-11-15T03:20:47.910Z,0
2017-11-15T03:21:30.528Z,0
2017-11-15T03:22:13.872Z,0
2017-11-15T03:22:54.615Z,0
2017-11-15T03:23:35.283Z,0
2017-11-15T03:24:15.781Z,0
2017-11-15T03:24:58.554Z,0
2017-11-15T03:25:44.534Z,0
2017-11-15T03:26:24.859Z,0
2017-11-15T03:27:08.451Z,0
2017-11-15T03:27:47.494Z,0
2017-11-15T03:28:29.781Z,0
2017-11-15T03:29:10.527Z,0
2017-11-15T03:29:51.163Z,0
2017-11-15T03:30:34.936Z,0
2017-11-15T03:31:16.035Z,0
2017-11-15T03:31:57.532Z,0
2017-11-15T03:32:38.511Z,0
2017-11-15T03:33:19.981Z,0
2017-11-15T03:34:02.432Z,0
2017-11-15T03:34:44.443Z,0
2017-11-15T03:35:24.158Z,0
2017-11-15T03:36:05.206Z,0
2017-11-15T03:36:47.050Z,0
2017-11-15T03:37:27.710Z,0
2017-11-15T03:38:08.902Z,0
2017-11-15T03:38:50.356Z,0
2017-11-15T03:39:30.674Z,0
2017-11-15T03:40:11.515Z,0
2017-11-15T03:40:52.612Z,0
2017-11-15T03:41:33.100Z,0
2017-11-15T03:42:13.446Z,0
2017-11-15T03:42:53.851Z,0
2017-11-15T03:43:34.245Z,0
2017-11-15T03:44:15.759Z,0
2017-11-15T03:44:56.903Z,0
2017-11-15T03:45:38.747Z,0
2017-11-15T03:46:19.387Z,0
2017-11-15T03:46:59.918Z,0
2017-11-15T03:47:41.326Z,0
2017-11-15T03:48:23.379Z,0
2017-11-15T03:49:06.632Z,0
2017-11-15T03:49:46.907Z,0
2017-11-15T03:50:27.328Z,0
2017-11-15T03:51:07.736Z,0
2017-11-15T03:51:48.099Z,0
2017-11-15T03:52:28.507Z,0
2017-11-15T03:53:08.973Z,0
2017-11-15T03:55:50.841Z,0
2017-11-15T03:56:36.061Z,0
2017-11-15T03:57:16.752Z,0
2017-11-15T03:57:57.021Z,0
2017-11-15T03:58:37.461Z,0
2017-11-15T03:59:17.897Z,0
2017-11-15T03:59:58.949Z,0
2017-11-15T04:00:39.455Z,0
2017-11-15T04:01:19.965Z,0
2017-11-15T04:48:05.729Z,0
2017-11-15T04:48:43.441Z,0
2017-11-15T04:49:23.824Z,0
2017-11-15T04:50:04.246Z,0
2017-11-15T04:50:44.721Z,0
2017-11-15T04:51:25.075Z,0
2017-11-15T04:52:05.452Z,0
2017-11-15T04:52:45.856Z,0
2017-11-15T04:53:26.259Z,0
2017-11-15T04:54:06.581Z,0
2017-11-15T04:54:47.138Z,0
2017-11-15T04:55:27.537Z,0
2017-11-15T04:56:07.973Z,0
2017-11-15T04:56:48.409Z,0
2017-11-15T04:57:28.885Z,0
2017-11-15T04:58:09.324Z,0
2017-11-15T04:58:49.768Z,0
2017-11-15T04:59:30.243Z,0
2017-11-15T05:00:10.640Z,0
2017-11-15T05:00:51.112Z,0
2017-11-15T05:01:31.515Z,0
2017-11-15T05:02:11.905Z,0
2017-11-15T05:02:52.318Z,0
2017-11-15T05:03:32.682Z,0
2017-11-15T05:04:13.037Z,0
2017-11-15T05:04:53.499Z,0
2017-11-15T05:05:33.854Z,0
2017-11-15T05:06:14.296Z,0
2017-11-15T05:06:54.730Z,0
2017-11-15T05:07:35.225Z,0
2017-11-15T05:08:15.708Z,0
2017-11-15T05:08:55.996Z,0
2017-11-15T05:09:36.386Z,0
2017-11-15T05:10:16.844Z,0
2017-11-15T05:10:57.269Z,0
2017-11-15T05:11:37.654Z,0
2017-11-15T05:12:18.138Z,0
2017-11-15T05:12:58.534Z,0
2017-11-15T05:13:39.006Z,0
2017-11-15T05:14:19.356Z,0
2017-11-15T05:14:59.776Z,0
2017-11-15T05:15:40.576Z,0
2017-11-15T05:16:21.063Z,0
2017-11-15T05:17:01.497Z,0
2017-11-15T05:17:45.267Z,0
2017-11-15T05:18:25.319Z,0
2017-11-15T05:19:05.666Z,0
2017-11-15T05:19:46.023Z,0
2017-11-15T05:20:26.513Z,0
2017-11-15T05:21:06.886Z,0
2017-11-15T05:21:47.400Z,0
2017-11-15T05:22:27.787Z,0
2017-11-15T05:23:08.218Z,0
2017-11-15T05:23:48.582Z,0
2017-11-15T05:24:29.638Z,0
2017-11-15T05:25:10.091Z,0
2017-11-15T05:25:50.629Z,0
2017-11-15T05:26:32.527Z,0
2017-11-15T05:27:14.197Z,0
2017-11-15T05:27:55.370Z,0
2017-11-15T05:28:35.537Z,0
2017-11-15T05:29:16.182Z,0
2017-11-15T05:29:58.306Z,0
2017-11-15T05:30:38.775Z,0
2017-11-15T05:31:21.523Z,0
2017-11-15T05:32:02.383Z,0
2017-11-15T05:32:42.527Z,0
2017-11-15T05:33:23.763Z,0
2017-11-15T05:34:05.869Z,0
2017-11-15T05:34:47.933Z,0
2017-11-15T05:35:28.620Z,0
2017-11-15T05:36:09.617Z,0
2017-11-15T05:36:50.259Z,0
2017-11-15T05:37:31.860Z,0
2017-11-15T05:38:12.245Z,0
2017-11-15T05:38:55.425Z,0
2017-11-15T05:39:35.661Z,0
2017-11-15T05:40:16.184Z,0
2017-11-15T05:40:56.846Z,0
2017-11-15T05:41:39.889Z,0
2017-11-15T05:42:22.597Z,0
2017-11-15T05:43:03.120Z,0
2017-11-15T05:43:43.540Z,0
2017-11-15T05:44:24.405Z,0
2017-11-15T05:45:05.064Z,0
2017-11-15T05:45:45.588Z,0
2017-11-15T05:46:25.970Z,0
2017-11-15T05:47:10.770Z,0
2017-11-15T05:47:52.632Z,0
2017-11-15T05:48:33.150Z,0
2017-11-15T05:49:13.700Z,0
2017-11-15T05:49:54.701Z,0
2017-11-15T05:50:35.231Z,0
2017-11-15T05:51:15.608Z,0
2017-11-15T05:51:56.498Z,0
2017-11-15T05:52:36.876Z,0
2017-11-15T05:53:17.321Z,0
2017-11-15T05:53:57.752Z,0
2017-11-15T05:54:38.652Z,0
2017-11-15T05:55:22.290Z,0
2017-11-15T05:56:02.792Z,0
2017-11-15T05:56:43.241Z,0
2017-11-15T05:57:24.547Z,0
2017-11-15T05:58:13.852Z,0
2017-11-15T05:59:06.932Z,0
2017-11-15T05:59:47.581Z,0
2017-11-15T06:00:30.193Z,0
2017-11-15T06:01:14.228Z,0
2017-11-15T06:01:55.428Z,0
2017-11-15T06:02:35.962Z,0
2017-11-15T06:03:24.629Z,0
2017-11-15T06:04:07.942Z,0
2017-11-15T06:04:48.606Z,0
2017-11-15T06:05:33.238Z,0
2017-11-15T06:07:51.200Z,0
2017-11-15T06:08:50.431Z,0
2017-11-15T06:09:51.711Z,0
2017-11-15T06:10:48.960Z,0
2017-11-15T06:11:42.490Z,0
2017-11-15T06:12:41.848Z,0
2017-11-15T06:13:41.245Z,0
2017-11-15T06:14:36.511Z,0
2017-11-15T06:15:31.871Z,0
2017-11-15T06:16:27.256Z,0
2017-11-15T06:17:21.572Z,0
2017-11-15T06:18:17.784Z,0
2017-11-15T06:19:11.605Z,0
2017-11-15T06:20:10.052Z,0
2017-11-15T06:21:06.641Z,0
2017-11-15T06:22:06.503Z,0
2017-11-15T06:23:00.965Z,0
2017-11-15T06:23:56.112Z,0
2017-11-15T06:24:51.107Z,4
2017-11-15T06:25:46.077Z,4
2017-11-15T06:26:41.697Z,4
2017-11-15T06:27:36.476Z,0
2017-11-15T06:28:32.242Z,0
2017-11-15T06:29:31.608Z,4
2017-11-15T06:30:27.254Z,4
2017-11-15T06:31:22.641Z,4
2017-11-15T06:32:29.407Z,4
2017-11-15T06:33:26.500Z,8
2017-11-15T06:34:23.369Z,8
2017-11-15T06:35:23.348Z,8
2017-11-15T06:36:15.859Z,8
2017-11-15T06:37:08.321Z,8
2017-11-15T06:38:01.609Z,8
2017-11-15T06:38:54.984Z,8
2017-11-15T06:41:21.681Z,12
2017-11-15T06:42:16.202Z,12
2017-11-15T06:43:08.526Z,16
2017-11-15T06:44:05.009Z,16
2017-11-15T06:45:01.005Z,20
2017-11-15T06:46:01.544Z,16
2017-11-15T06:46:55.101Z,20
2017-11-15T06:49:09.821Z,24
2017-11-15T06:50:06.040Z,24
2017-11-15T06:50:59.221Z,24
2017-11-15T06:51:39.464Z,28
2017-11-15T06:52:20.856Z,28
2017-11-15T06:53:02.142Z,28
2017-11-15T06:53:42.419Z,28
2017-11-15T06:54:24.145Z,32
2017-11-15T06:55:05.140Z,36
2017-11-15T06:55:45.273Z,36
2017-11-15T06:59:05.664Z,48
2017-11-15T07:00:00.804Z,56
2017-11-15T07:00:55.503Z,60
2017-11-15T07:01:35.877Z,64
2017-11-15T07:02:18.758Z,68
2017-11-15T07:02:59.145Z,72
2017-11-15T07:03:39.631Z,72
2017-11-15T07:11:33.399Z,120
2017-11-15T07:12:28.134Z,132
2017-11-15T07:13:23.730Z,136
2017-11-15T07:14:19.652Z,148
2017-11-15T07:15:20.393Z,160
2017-11-15T07:16:17.010Z,172
2017-11-15T07:17:12.706Z,180
2017-11-15T07:19:41.676Z,216
2017-11-15T07:20:21.906Z,224
2017-11-15T07:21:02.372Z,232
2017-11-15T07:21:42.821Z,236
2017-11-15T07:22:23.290Z,248
2017-11-15T07:23:03.783Z,260
2017-11-15T07:23:44.783Z,268
2017-11-15T07:24:25.418Z,280
2017-11-15T07:25:06.441Z,284
2017-11-15T07:25:46.874Z,296
2017-11-15T07:26:27.761Z,304
2017-11-15T07:27:08.539Z,316
2017-11-15T07:27:48.984Z,344
2017-11-15T07:28:29.338Z,364
2017-11-15T07:29:09.826Z,368
2017-11-15T07:29:50.269Z,372
2017-11-15T07:30:30.883Z,372
2017-11-15T07:31:11.315Z,372
2017-11-15T07:31:51.642Z,364
2017-11-15T07:32:32.330Z,356
2017-11-15T07:33:12.713Z,348
2017-11-15T07:33:53.188Z,348
2017-11-15T07:34:33.588Z,356
2017-11-15T07:35:14.362Z,368
2017-11-15T07:35:54.791Z,376
2017-11-15T07:36:35.153Z,380
2017-11-15T07:37:15.663Z,384
2017-11-15T07:37:56.027Z,392
2017-11-15T07:38:36.502Z,400
2017-11-15T07:39:16.832Z,404
2017-11-15T07:39:57.367Z,424
2017-11-15T07:40:37.964Z,444
2017-11-15T07:41:18.509Z,460
2017-11-15T07:41:58.976Z,468
2017-11-15T07:42:39.386Z,464
2017-11-15T07:43:19.824Z,460
2017-11-15T07:44:00.264Z,460
2017-11-15T07:44:40.713Z,468
2017-11-15T07:45:21.204Z,484
2017-11-15T07:46:01.594Z,504
2017-11-15T07:46:42.147Z,528
2017-11-15T07:47:22.555Z,548
2017-11-15T07:48:02.886Z,568
2017-11-15T07:48:44.231Z,588
2017-11-15T07:49:25.249Z,612
2017-11-15T07:50:05.597Z,636
2017-11-15T07:50:47.100Z,652
2017-11-15T07:51:27.306Z,664
2017-11-15T07:52:08.140Z,672
2017-11-15T07:52:49.604Z,672
2017-11-15T07:53:30.182Z,668
2017-11-15T07:54:11.031Z,664
2017-11-15T07:54:51.482Z,660
2017-11-15T07:55:33.129Z,656
2017-11-15T07:56:13.643Z,660
2017-11-15T07:56:54.453Z,668
2017-11-15T07:57:34.075Z,676
2017-11-15T08:01:58.896Z,892
2017-11-15T08:02:40.186Z,956
2017-11-15T08:03:20.303Z,1020
2017-11-15T08:04:00.932Z,1068
2017-11-15T08:04:41.499Z,1120
2017-11-15T08:05:22.469Z,1148
2017-11-15T08:06:03.106Z,1164
2017-11-15T08:06:43.740Z,1156
2017-11-15T08:07:24.928Z,1116
2017-11-15T08:08:05.542Z,1108
2017-11-15T08:08:46.205Z,1024
2017-11-15T08:09:26.687Z,964
2017-11-15T08:10:07.332Z,932
2017-11-15T08:10:48.898Z,924
2017-11-15T08:11:29.113Z,904
2017-11-15T08:12:10.244Z,868
2017-11-15T08:12:50.710Z,840
2017-11-15T08:13:31.166Z,816
2017-11-15T08:14:11.753Z,788
2017-11-15T08:14:52.386Z,764
2017-11-15T08:15:32.879Z,732
2017-11-15T08:16:13.412Z,700
2017-11-15T08:16:53.891Z,668
2017-11-15T08:17:34.627Z,652
2017-11-15T08:18:15.162Z,652
2017-11-15T08:18:55.486Z,656
2017-11-15T08:19:35.930Z,672
2017-11-15T08:20:16.504Z,692
2017-11-15T08:20:56.963Z,720
2017-11-15T08:21:37.427Z,744
2017-11-15T08:22:17.953Z,784
2017-11-15T08:22:58.421Z,824
2017-11-15T08:23:38.894Z,864
2017-11-15T08:24:19.284Z,888
2017-11-15T08:24:59.802Z,892
2017-11-15T08:25:40.356Z,884
2017-11-15T08:26:20.825Z,864
2017-11-15T08:27:01.260Z,856
2017-11-15T08:27:41.854Z,848
2017-11-15T08:28:22.329Z,848
2017-11-15T08:29:02.683Z,864
2017-11-15T08:29:43.207Z,880
2017-11-15T08:30:23.602Z,892
2017-11-15T08:31:04.170Z,908
2017-11-15T08:31:44.756Z,916
2017-11-15T08:32:25.314Z,916
2017-11-15T08:33:05.902Z,888
2017-11-15T08:33:46.939Z,864
2017-11-15T08:34:27.861Z,844
2017-11-15T08:35:08.333Z,832
2017-11-15T08:35:48.777Z,816
2017-11-15T08:47:29.967Z,928
2017-11-15T08:48:10.337Z,968
2017-11-15T08:48:50.911Z,1004
2017-11-15T08:49:31.438Z,1032
2017-11-15T08:50:11.990Z,1056
2017-11-15T08:50:52.465Z,1064
2017-11-15T08:51:32.906Z,1044
2017-11-15T08:52:13.538Z,1040
2017-11-15T08:52:54.344Z,1016
2017-11-15T08:53:34.807Z,980
2017-11-15T08:54:15.355Z,948
2017-11-15T08:54:55.798Z,932
2017-11-15T08:55:36.148Z,908
2017-11-15T08:56:16.697Z,892
2017-11-15T08:56:57.133Z,880
2017-11-15T08:57:37.590Z,876
2017-11-15T08:58:19.142Z,868
2017-11-15T10:51:58.775Z,508
2017-11-15T10:52:49.192Z,488
2017-11-15T10:53:37.718Z,480
2017-11-15T10:54:19.917Z,480
2017-11-15T10:55:00.573Z,488
2017-11-15T10:55:47.137Z,492
2017-11-15T10:59:23.109Z,472
2017-11-15T11:05:26.254Z,516
2017-11-15T11:06:08.647Z,524
2017-11-15T11:06:49.591Z,532
2017-11-15T11:09:25.013Z,620
2017-11-15T11:10:16.129Z,664
2017-11-15T11:11:05.558Z,676
2017-11-15T11:11:54.627Z,676
2017-11-15T11:12:44.097Z,676
2017-11-15T11:20:30.829Z,872
2017-11-15T11:21:20.370Z,900
2017-11-15T11:22:08.845Z,912
2017-11-15T11:22:57.677Z,900
2017-11-15T11:23:47.233Z,892
2017-11-15T11:29:53.384Z,928
2017-11-15T11:35:06.457Z,976
2017-11-15T11:40:32.627Z,876
2017-11-15T11:42:59.961Z,844
2017-11-15T11:44:10.082Z,840
2017-11-15T11:46:48.362Z,832
2017-11-15T11:50:01.899Z,908
2017-11-15T11:55:52.820Z,820
2017-11-15T12:00:32.440Z,816
2017-11-15T12:04:59.204Z,888
2017-11-15T12:05:39.417Z,904
2017-11-15T12:06:19.823Z,916
2017-11-15T12:07:00.317Z,928
2017-11-15T12:07:40.658Z,936
2017-11-15T12:08:21.102Z,944
2017-11-15T12:09:01.540Z,952
2017-11-15T12:09:42.110Z,956
2017-11-15T12:10:22.803Z,960
2017-11-15T12:11:03.155Z,952
2017-11-15T12:11:43.598Z,952
2017-11-15T12:12:24.062Z,944
2017-11-15T12:13:04.682Z,932
2017-11-15T12:13:45.170Z,920
2017-11-15T12:14:25.654Z,912
2017-11-15T12:15:06.096Z,904
2017-11-15T12:15:46.583Z,904
2017-11-15T12:16:26.995Z,904
2017-11-15T12:17:07.514Z,912
2017-11-15T12:17:47.961Z,916
2017-11-15T12:18:28.622Z,924
2017-11-15T12:19:09.107Z,932
2017-11-15T12:19:49.691Z,936
2017-11-15T12:20:30.121Z,936
2017-11-15T12:21:10.717Z,936
2017-11-15T12:21:51.018Z,940
2017-11-15T12:22:31.441Z,936
2017-11-15T12:23:11.927Z,940
2017-11-15T12:23:52.725Z,944
2017-11-15T12:24:33.051Z,952
2017-11-15T12:25:13.545Z,952
2017-11-15T12:25:53.917Z,956
2017-11-15T12:26:34.403Z,960
2017-11-15T12:27:14.878Z,968
2017-11-15T12:27:55.521Z,976
2017-11-15T12:28:36.030Z,980
2017-11-15T12:29:16.950Z,980
2017-11-15T12:29:57.517Z,980
2017-11-15T12:30:37.972Z,984
2017-11-15T12:31:18.415Z,992
2017-11-15T12:31:59.583Z,996
2017-11-15T12:32:40.023Z,1004
2017-11-15T12:33:20.572Z,1016
2017-11-15T12:34:01.001Z,1024
2017-11-15T12:34:41.679Z,1028
2017-11-15T12:35:22.102Z,1032
2017-11-15T12:36:02.953Z,1036
2017-11-15T12:36:43.653Z,1040
2017-11-15T12:37:24.094Z,1048
2017-11-15T12:38:04.565Z,1056
2017-11-15T12:38:46.026Z,1060
2017-11-15T12:39:26.160Z,1064
2017-11-15T12:40:07.170Z,1064
2017-11-15T12:40:47.804Z,1068
2017-11-15T12:41:28.125Z,1068
2017-11-15T12:42:08.697Z,1072
2017-11-15T12:42:50.274Z,1076
2017-11-15T12:43:30.782Z,1076
2017-11-15T12:44:11.225Z,1076
2017-11-15T12:44:51.847Z,1076
2017-11-15T12:45:32.319Z,1072
2017-11-15T12:46:12.671Z,1060
2017-11-15T12:46:53.848Z,1048
2017-11-15T12:47:34.330Z,1024
2017-11-15T12:48:14.826Z,1000
2017-11-15T12:48:55.510Z,972
2017-11-15T12:49:35.929Z,952
2017-11-15T12:50:16.405Z,932
2017-11-15T12:50:57.396Z,920
2017-11-15T12:51:37.914Z,908
2017-11-15T12:52:18.323Z,900
2017-11-15T12:52:59.104Z,892
2017-11-15T12:53:39.448Z,884
2017-11-15T12:54:19.962Z,880
2017-11-15T12:55:00.465Z,876
2017-11-15T12:55:41.014Z,880
2017-11-15T12:56:21.441Z,880
2017-11-15T12:57:01.990Z,872
2017-11-15T12:57:42.486Z,872
2017-11-15T12:58:23.023Z,864
2017-11-15T12:59:03.462Z,852
2017-11-15T12:59:43.814Z,844
2017-11-15T13:00:24.351Z,840
2017-11-15T13:01:04.796Z,836
2017-11-15T13:01:45.651Z,832
2017-11-15T13:02:26.206Z,836
2017-11-15T13:03:06.950Z,832
2017-11-15T13:03:47.425Z,832
2017-11-15T13:04:27.899Z,836
2017-11-15T13:05:08.376Z,836
2017-11-15T13:05:48.836Z,840
2017-11-15T13:06:29.540Z,844
2017-11-15T13:07:10.903Z,852
2017-11-15T13:07:51.394Z,852
2017-11-15T13:08:31.881Z,852
2017-11-15T13:09:12.195Z,856
2017-11-15T13:09:52.712Z,860
2017-11-15T13:10:33.270Z,860
2017-11-15T13:11:13.879Z,856
2017-11-15T13:11:54.301Z,852
2017-11-15T13:12:35.603Z,848
2017-11-15T13:13:15.873Z,840
2017-11-15T13:13:56.343Z,828
2017-11-15T13:14:38.070Z,812
2017-11-15T13:15:18.638Z,804
2017-11-15T13:15:59.249Z,796
2017-11-15T13:16:39.844Z,792
2017-11-15T13:17:20.365Z,784
2017-11-15T13:18:00.795Z,780
2017-11-15T13:18:41.306Z,776
2017-11-15T13:19:21.923Z,768
2017-11-15T13:20:02.295Z,768
2017-11-15T13:20:42.987Z,756
2017-11-15T13:21:23.444Z,752
2017-11-15T13:22:04.627Z,744
2017-11-15T13:22:44.993Z,744
2017-11-15T13:23:25.450Z,736
2017-11-15T13:24:06.007Z,728
2017-11-15T13:24:46.339Z,728
2017-11-15T13:25:27.215Z,724
2017-11-15T13:26:08.454Z,724
2017-11-15T13:26:48.726Z,732
2017-11-15T13:27:29.175Z,728
2017-11-15T13:28:09.702Z,724
2017-11-15T13:28:50.104Z,724
2017-11-15T13:29:33.380Z,712
2017-11-15T13:30:14.357Z,704
2017-11-15T13:30:54.849Z,696
2017-11-15T13:31:35.635Z,700
2017-11-15T13:32:16.008Z,704
2017-11-15T13:32:56.450Z,712
2017-11-15T13:33:39.597Z,716
2017-11-15T13:34:20.051Z,732
2017-11-15T13:35:00.498Z,740
2017-11-15T13:35:41.391Z,744
2017-11-15T13:36:21.426Z,744
2017-11-15T13:37:01.847Z,744
2017-11-15T13:37:42.226Z,748
2017-11-15T13:38:22.759Z,744
2017-11-15T13:39:03.248Z,736
2017-11-15T13:39:43.586Z,736
2017-11-15T13:40:24.083Z,732
2017-11-15T13:41:04.465Z,724
2017-11-15T13:41:44.916Z,716
2017-11-15T13:42:25.334Z,708
2017-11-15T13:43:05.801Z,696
2017-11-15T13:43:46.337Z,684
2017-11-15T13:44:26.765Z,668
2017-11-15T13:45:07.383Z,652
2017-11-15T13:45:47.923Z,632
2017-11-15T13:46:29.909Z,612
2017-11-15T13:47:09.681Z,592
2017-11-15T13:47:51.027Z,576
2017-11-15T13:48:31.029Z,568
2017-11-15T13:49:11.551Z,556
2017-11-15T13:49:52.141Z,544
2017-11-15T13:50:33.652Z,536
2017-11-15T13:51:13.760Z,532
2017-11-15T13:52:00.801Z,512
2017-11-15T13:56:13.311Z,488
2017-11-15T13:57:07.167Z,496
2017-11-15T13:57:56.272Z,508
2017-11-15T13:58:47.857Z,520
2017-11-15T13:59:37.282Z,540
2017-11-15T14:09:02.021Z,668
2017-11-15T14:09:53.927Z,676
2017-11-15T14:12:00.837Z,688
2017-11-15T14:12:52.635Z,684
2017-11-15T14:13:42.386Z,660
2017-11-15T14:14:34.218Z,636
2017-11-15T14:15:27.153Z,616
2017-11-15T14:21:30.270Z,480
2017-11-15T14:22:12.684Z,468
2017-11-15T14:22:52.477Z,464
2017-11-15T14:23:34.434Z,464
2017-11-15T14:24:16.208Z,464
2017-11-15T14:24:56.425Z,460
2017-11-15T14:25:37.713Z,456
2017-11-15T14:26:19.758Z,456
2017-11-15T14:27:00.361Z,452
2017-11-15T14:27:40.962Z,452
2017-11-15T14:28:21.864Z,448
2017-11-15T14:29:12.733Z,448
2017-11-15T14:45:25.507Z,412
2017-11-15T14:46:12.751Z,408
2017-11-15T14:47:01.805Z,408